Time;durP1;ratioP1;P1;durP2;ratioP2;P2;SDS_P1;SDS_P2;PMS_P1;PMS_P2;Temp;Humidity;BMP_temperature;BMP_pressure;BME280_temperature;BME280_humidity;BME280_pressure;Samples;Min_cycle;Max_cycle;Signal;HPM_P1;HPM_P2
2023/09/18 00:00:21;;;;;;;10.23;4.70;;;16.50;99.90;;;;;;5071813;28;20187;-70
2023/09/18 00:02:48;;;;;;;10.53;5.20;;;16.50;99.90;;;;;;5070655;28;20190;-70
2023/09/18 00:05:16;;;;;;;9.33;5.10;;;16.50;99.90;;;;;;5071712;28;20210;-69
2023/09/18 00:07:43;;;;;;;9.77;4.70;;;16.40;99.90;;;;;;5071107;28;20593;-69
2023/09/18 00:10:10;;;;;;;11.03;4.87;;;16.40;99.90;;;;;;5071731;28;20201;-69
2023/09/18 00:12:36;;;;;;;12.07;4.90;;;16.40;99.90;;;;;;5070788;28;20304;-69
2023/09/18 00:15:01;;;;;;;7.27;4.73;;;16.40;99.90;;;;;;5071421;28;20344;-71
2023/09/18 00:17:27;;;;;;;6.17;4.47;;;16.40;99.90;;;;;;5071467;28;20589;-70
2023/09/18 00:19:53;;;;;;;7.93;4.67;;;16.30;99.90;;;;;;5071203;28;20194;-70
2023/09/18 00:22:19;;;;;;;7.43;4.50;;;16.30;99.90;;;;;;5071379;28;20259;-70
2023/09/18 00:24:44;;;;;;;9.23;4.03;;;16.30;99.90;;;;;;5071040;28;20692;-69
2023/09/18 00:27:11;;;;;;;7.80;5.20;;;16.30;99.90;;;;;;5071188;28;20189;-70
2023/09/18 00:29:36;;;;;;;7.63;4.33;;;16.20;99.90;;;;;;5070716;28;20206;-69
2023/09/18 00:32:02;;;;;;;10.00;4.60;;;16.20;99.90;;;;;;5071138;28;20291;-70
2023/09/18 00:34:29;;;;;;;9.43;5.13;;;16.10;99.90;;;;;;5071302;28;20214;-68
2023/09/18 00:36:55;;;;;;;7.77;4.73;;;16.10;99.90;;;;;;5071108;28;20178;-69
2023/09/18 00:39:20;;;;;;;9.67;4.83;;;16.10;99.90;;;;;;5070379;28;20688;-69
2023/09/18 00:41:49;;;;;;;7.60;5.03;;;16.00;99.90;;;;;;5071224;28;20273;-71
2023/09/18 00:44:14;;;;;;;7.40;4.90;;;16.00;99.90;;;;;;5070933;28;20783;-70
2023/09/18 00:46:40;;;;;;;8.40;4.90;;;15.90;99.90;;;;;;5071097;28;20186;-69
2023/09/18 00:49:06;;;;;;;9.93;4.83;;;15.90;99.90;;;;;;5070123;28;20359;-70
2023/09/18 00:51:32;;;;;;;14.93;5.27;;;15.90;99.90;;;;;;5070895;28;20214;-70
2023/09/18 00:53:59;;;;;;;7.53;4.67;;;15.80;99.90;;;;;;5070978;28;20606;-70
2023/09/18 00:56:25;;;;;;;12.37;5.37;;;15.80;99.90;;;;;;5069900;28;20200;-70
2023/09/18 00:58:51;;;;;;;10.13;5.33;;;15.80;99.90;;;;;;5070079;28;20174;-69
2023/09/18 01:01:22;;;;;;;6.90;4.90;;;15.80;99.90;;;;;;5070670;28;20202;-69
2023/09/18 01:03:50;;;;;;;8.90;4.90;;;15.80;99.90;;;;;;5070968;28;20178;-69
2023/09/18 01:06:15;;;;;;;10.03;5.30;;;15.80;99.90;;;;;;5070639;28;20214;-70
2023/09/18 01:08:41;;;;;;;12.83;6.07;;;15.80;99.90;;;;;;5068806;28;20248;-70
2023/09/18 01:11:33;;;;;;;9.77;5.80;;;15.80;99.90;;;;;;5070435;28;20577;-69
2023/09/18 01:14:17;;;;;;;8.17;5.67;;;15.80;99.90;;;;;;5057552;28;20191;-69
2023/09/18 01:16:56;;;;;;;17.13;6.60;;;15.80;99.90;;;;;;5070645;28;20190;-70
2023/09/18 01:19:38;;;;;;;13.83;6.97;;;15.80;99.90;;;;;;5069724;28;20198;-69
2023/09/18 01:22:05;;;;;;;13.53;6.50;;;15.80;99.90;;;;;;5070312;28;20553;-70
2023/09/18 01:24:32;;;;;;;16.97;7.77;;;15.90;99.90;;;;;;5070536;28;20241;-70
2023/09/18 01:26:58;;;;;;;10.90;6.57;;;15.80;99.90;;;;;;5070611;28;20239;-69
2023/09/18 01:29:23;;;;;;;10.53;6.43;;;15.80;99.90;;;;;;5078079;28;20182;-70
2023/09/18 01:31:51;;;;;;;13.77;6.67;;;15.80;99.90;;;;;;5069346;28;20247;-70
2023/09/18 01:34:21;;;;;;;15.00;6.93;;;15.80;99.90;;;;;;5070153;28;20565;-69
2023/09/18 01:36:47;;;;;;;11.23;6.20;;;15.70;99.90;;;;;;5069474;28;20224;-70
2023/09/18 01:39:13;;;;;;;17.53;6.60;;;15.80;99.90;;;;;;5069503;28;20190;-70
2023/09/18 01:41:40;;;;;;;11.43;6.23;;;15.70;99.90;;;;;;5070317;28;20182;-70
2023/09/18 01:44:06;;;;;;;11.73;6.80;;;15.70;99.90;;;;;;5070132;28;20568;-70
2023/09/18 01:46:36;;;;;;;11.27;6.73;;;15.80;99.90;;;;;;5070213;28;20202;-70
2023/09/18 01:49:03;;;;;;;15.03;6.83;;;15.70;99.90;;;;;;5069353;28;20261;-69
2023/09/18 01:51:29;;;;;;;20.87;6.60;;;15.80;99.90;;;;;;5069991;28;20297;-69
2023/09/18 01:53:56;;;;;;;10.77;6.43;;;15.70;99.90;;;;;;5068923;28;20265;-69
2023/09/18 01:56:23;;;;;;;12.50;6.70;;;15.70;99.90;;;;;;5069947;28;20194;-70
2023/09/18 01:58:49;;;;;;;10.93;5.70;;;15.80;99.90;;;;;;5069359;28;20182;-70
2023/09/18 02:01:14;;;;;;;10.60;6.43;;;15.80;99.90;;;;;;5069994;28;20281;-70
2023/09/18 02:03:41;;;;;;;15.17;6.43;;;15.80;99.90;;;;;;5070108;28;20182;-69
2023/09/18 02:06:09;;;;;;;9.47;6.03;;;15.80;99.90;;;;;;5070744;28;20211;-69
2023/09/18 02:08:35;;;;;;;9.13;6.23;;;15.80;99.90;;;;;;5076106;28;20211;-70
2023/09/18 02:11:01;;;;;;;14.77;6.23;;;15.70;99.90;;;;;;5069773;28;20579;-69
2023/09/18 02:13:26;;;;;;;15.37;7.20;;;15.60;99.90;;;;;;5070055;28;20190;-69
2023/09/18 02:15:52;;;;;;;21.23;7.03;;;15.70;99.90;;;;;;5069786;28;20207;-69
2023/09/18 02:18:18;;;;;;;10.40;6.67;;;15.60;99.90;;;;;;5068972;28;20189;-70
2023/09/18 02:20:47;;;;;;;15.43;6.80;;;15.50;99.90;;;;;;5069935;28;20180;-69
2023/09/18 02:23:13;;;;;;;24.03;7.83;;;15.60;99.90;;;;;;5068420;28;20225;-69
2023/09/18 02:25:40;;;;;;;18.97;7.13;;;15.50;99.90;;;;;;5069850;28;20202;-69
2023/09/18 02:28:06;;;;;;;15.47;7.00;;;15.50;99.90;;;;;;5068960;28;20191;-69
2023/09/18 02:30:32;;;;;;;13.43;7.33;;;15.50;99.90;;;;;;5069736;28;20182;-69
2023/09/18 02:32:57;;;;;;;17.50;7.40;;;15.40;99.90;;;;;;5069764;28;20217;-69
2023/09/18 02:35:23;;;;;;;17.93;8.00;;;15.40;99.90;;;;;;5069532;28;20722;-69
2023/09/18 02:37:48;;;;;;;13.70;7.87;;;15.40;99.90;;;;;;5068989;28;20194;-70
2023/09/18 02:40:14;;;;;;;18.33;8.60;;;15.40;99.90;;;;;;5069572;28;20178;-70
2023/09/18 02:42:40;;;;;;;15.70;7.97;;;15.40;99.90;;;;;;5069609;28;20646;-69
2023/09/18 02:45:06;;;;;;;17.47;7.73;;;15.50;99.90;;;;;;5069489;28;20206;-69
2023/09/18 02:47:33;;;;;;;16.37;7.43;;;15.50;99.90;;;;;;5071714;28;20186;-69
2023/09/18 02:49:59;;;;;;;15.97;7.47;;;15.60;99.90;;;;;;5071839;28;20247;-68
2023/09/18 02:52:24;;;;;;;15.13;7.17;;;15.70;99.90;;;;;;5073162;28;20213;-67
2023/09/18 02:54:50;;;;;;;15.60;7.63;;;15.80;99.90;;;;;;5073256;28;20211;-69
2023/09/18 02:57:16;;;;;;;13.57;7.50;;;15.80;99.90;;;;;;5073026;28;20653;-69
2023/09/18 02:59:41;;;;;;;12.97;7.10;;;15.80;99.90;;;;;;5072481;28;20265;-69
2023/09/18 03:02:07;;;;;;;9.57;6.30;;;15.90;99.90;;;;;;5073007;28;20228;-69
2023/09/18 03:04:32;;;;;;;12.53;6.60;;;15.90;99.90;;;;;;5073091;28;20627;-70
2023/09/18 03:06:58;;;;;;;10.93;6.70;;;15.90;99.90;;;;;;5073108;28;20621;-69
2023/09/18 03:09:23;;;;;;;13.77;6.53;;;16.00;99.90;;;;;;5072187;28;20190;-69
2023/09/18 03:11:49;;;;;;;16.57;6.60;;;16.00;99.90;;;;;;5051703;28;20237;-70
2023/09/18 03:14:14;;;;;;;11.43;6.03;;;16.10;99.90;;;;;;5071406;28;20194;-69
2023/09/18 03:16:40;;;;;;;8.50;5.57;;;16.10;99.90;;;;;;5072853;28;20213;-69
2023/09/18 03:19:05;;;;;;;11.90;6.70;;;16.10;99.90;;;;;;5071907;28;20213;-69
2023/09/18 03:21:33;;;;;;;8.33;5.77;;;16.20;99.90;;;;;;5072638;28;20190;-69
2023/09/18 03:23:59;;;;;;;13.57;5.83;;;16.20;99.90;;;;;;5072792;28;20273;-69
2023/09/18 03:26:28;;;;;;;12.47;6.60;;;16.20;99.90;;;;;;5064360;28;20669;-69
2023/09/18 03:28:53;;;;;;;12.10;6.60;;;16.30;99.90;;;;;;5072084;28;20308;-69
2023/09/18 03:31:19;;;;;;;10.90;6.30;;;16.30;99.90;;;;;;5072484;28;20317;-69
2023/09/18 03:33:44;;;;;;;13.87;6.37;;;16.40;99.90;;;;;;5072793;28;20313;-68
2023/09/18 03:36:11;;;;;;;17.80;7.13;;;16.40;99.90;;;;;;5072357;28;20203;-69
2023/09/18 03:38:37;;;;;;;8.90;6.07;;;16.40;99.90;;;;;;5071887;28;20205;-69
2023/09/18 03:41:02;;;;;;;12.60;6.50;;;16.40;99.90;;;;;;5072393;28;20777;-70
2023/09/18 03:43:28;;;;;;;10.23;6.00;;;16.50;99.90;;;;;;5072637;28;20186;-69
2023/09/18 03:45:53;;;;;;;14.27;6.23;;;16.50;99.90;;;;;;5079008;28;20224;-69
2023/09/18 03:48:20;;;;;;;12.20;5.80;;;16.50;99.90;;;;;;5072411;28;22173;-69
2023/09/18 03:50:47;;;;;;;13.17;6.40;;;16.50;99.90;;;;;;5072270;28;20201;-69
2023/09/18 03:53:13;;;;;;;13.93;6.37;;;16.40;99.90;;;;;;5072107;28;20277;-69
2023/09/18 03:55:38;;;;;;;13.50;5.97;;;16.40;99.90;;;;;;5072167;28;20294;-69
2023/09/18 03:58:05;;;;;;;10.57;5.77;;;16.50;99.90;;;;;;5070332;28;20179;-69
2023/09/18 04:00:30;;;;;;;12.77;5.77;;;16.50;99.90;;;;;;5072042;28;20186;-69
2023/09/18 04:02:56;;;;;;;11.77;6.43;;;16.50;99.90;;;;;;5072040;28;20222;-69
2023/09/18 04:05:21;;;;;;;11.97;6.17;;;16.50;99.90;;;;;;5071808;28;20284;-69
2023/09/18 04:07:47;;;;;;;11.10;5.90;;;16.50;99.90;;;;;;5071140;28;20243;-69
2023/09/18 04:10:22;;;;;;;14.63;6.40;;;16.40;99.90;;;;;;5071766;28;20190;-69
2023/09/18 04:12:50;;;;;;;10.43;5.37;;;16.30;99.90;;;;;;5071647;28;20212;-70
2023/09/18 04:15:18;;;;;;;9.83;5.93;;;16.30;99.90;;;;;;5071493;28;20240;-70
2023/09/18 04:17:44;;;;;;;10.87;5.93;;;16.30;99.90;;;;;;5070900;28;20205;-69
2023/09/18 04:20:10;;;;;;;20.17;7.27;;;16.30;99.90;;;;;;5071561;28;20189;-69
2023/09/18 04:22:36;;;;;;;13.13;6.07;;;16.40;99.90;;;;;;5071614;28;20275;-69
2023/09/18 04:25:05;;;;;;;19.50;6.20;;;16.40;99.90;;;;;;5071368;28;20286;-69
2023/09/18 04:27:31;;;;;;;16.93;7.07;;;16.50;99.90;;;;;;5071417;28;20175;-68
2023/09/18 04:29:56;;;;;;;18.50;6.20;;;16.60;99.90;;;;;;5071280;28;20229;-69
2023/09/18 04:32:23;;;;;;;13.73;6.97;;;16.50;99.90;;;;;;5071190;28;20265;-69
2023/09/18 04:34:48;;;;;;;13.53;6.20;;;16.60;99.90;;;;;;5071352;28;20203;-69
2023/09/18 04:37:14;;;;;;;12.37;6.00;;;16.50;99.90;;;;;;5071063;28;20204;-69
2023/09/18 04:39:39;;;;;;;8.00;5.70;;;16.50;99.90;;;;;;5070268;28;20182;-69
2023/09/18 04:42:05;;;;;;;12.27;6.17;;;16.50;99.90;;;;;;5070967;28;20540;-69
2023/09/18 04:44:31;;;;;;;11.13;5.70;;;16.50;99.90;;;;;;5071135;28;20285;-69
2023/09/18 04:46:57;;;;;;;9.87;5.83;;;16.50;99.90;;;;;;5079038;28;20189;-69
2023/09/18 04:49:23;;;;;;;11.80;5.97;;;16.50;99.90;;;;;;5087433;28;20208;-69
2023/09/18 04:51:49;;;;;;;15.53;7.83;;;16.50;99.90;;;;;;5070695;28;20289;-69
2023/09/18 04:54:15;;;;;;;12.73;6.73;;;16.50;99.90;;;;;;5069830;28;20248;-69
2023/09/18 04:56:41;;;;;;;14.33;7.07;;;16.50;99.90;;;;;;5070933;28;20233;-69
2023/09/18 04:59:06;;;;;;;11.70;6.03;;;16.50;99.90;;;;;;5070153;28;20194;-68
2023/09/18 05:01:32;;;;;;;13.77;6.63;;;16.40;99.90;;;;;;5071057;28;20182;-69
2023/09/18 05:03:57;;;;;;;11.13;5.80;;;16.40;99.90;;;;;;5070880;28;20722;-69
2023/09/18 05:06:23;;;;;;;10.93;5.77;;;16.40;99.90;;;;;;5082105;28;20209;-69
2023/09/18 05:08:49;;;;;;;34.73;16.97;;;16.50;99.90;;;;;;5082502;28;20223;-69
2023/09/18 05:11:15;;;;;;;14.47;6.63;;;16.40;99.90;;;;;;5088748;28;20292;-70
2023/09/18 05:13:40;;;;;;;14.27;7.40;;;16.40;99.90;;;;;;5084907;28;20174;-68
2023/09/18 05:16:06;;;;;;;17.20;7.30;;;16.40;99.90;;;;;;5090126;28;20676;-68
2023/09/18 05:18:31;;;;;;;24.07;11.60;;;16.40;99.90;;;;;;5081294;28;20205;-69
2023/09/18 05:20:58;;;;;;;15.43;7.57;;;16.40;99.90;;;;;;5074681;28;20201;-69
2023/09/18 05:23:23;;;;;;;15.83;7.10;;;16.40;99.90;;;;;;5081529;28;20596;-69
2023/09/18 05:25:49;;;;;;;13.13;6.73;;;16.30;99.90;;;;;;5074895;28;20198;-69
2023/09/18 05:28:14;;;;;;;15.20;7.07;;;16.30;99.90;;;;;;5070788;28;20182;-69
2023/09/18 05:30:40;;;;;;;23.17;12.07;;;16.40;99.90;;;;;;5082290;28;20327;-68
2023/09/18 05:33:07;;;;;;;15.53;7.53;;;16.40;99.90;;;;;;5073506;28;20293;-67
2023/09/18 05:35:36;;;;;;;15.33;7.03;;;16.40;99.90;;;;;;5081866;28;20228;-68
2023/09/18 05:38:03;;;;;;;11.90;6.10;;;16.50;99.90;;;;;;5080747;28;20174;-68
2023/09/18 05:40:29;;;;;;;10.23;6.23;;;16.50;99.90;;;;;;5082177;28;20173;-69
2023/09/18 05:42:56;;;;;;;13.60;6.63;;;16.50;99.90;;;;;;5074191;28;20241;-68
2023/09/18 05:45:22;;;;;;;17.47;6.33;;;16.60;99.90;;;;;;5086137;28;20214;-68
2023/09/18 05:47:48;;;;;;;9.67;6.07;;;16.60;99.90;;;;;;5077456;28;20190;-68
2023/09/18 05:50:17;;;;;;;13.37;6.53;;;16.70;99.90;;;;;;5078040;28;20217;-68
2023/09/18 05:52:44;;;;;;;14.50;7.00;;;16.70;99.90;;;;;;5083538;28;20206;-69
2023/09/18 05:55:10;;;;;;;17.37;6.33;;;16.80;99.90;;;;;;5080024;28;20210;-68
2023/09/18 05:57:36;;;;;;;11.13;6.77;;;16.80;99.90;;;;;;5073908;28;20178;-69
2023/09/18 06:00:02;;;;;;;16.83;7.57;;;16.90;99.90;;;;;;5072763;28;20201;-68
2023/09/18 06:02:28;;;;;;;13.90;8.50;;;16.90;99.90;;;;;;5089746;28;20212;-69
2023/09/18 06:04:57;;;;;;;12.80;7.33;;;16.90;99.90;;;;;;5081293;28;20652;-68
2023/09/18 06:07:32;;;;;;;15.83;8.30;;;17.00;99.90;;;;;;5069321;28;20185;-67
2023/09/18 06:09:58;;;;;;;12.00;6.80;;;17.00;99.90;;;;;;5076846;28;20188;-68
2023/09/18 06:12:24;;;;;;;12.53;7.17;;;17.10;99.90;;;;;;5081174;28;20202;-68
2023/09/18 06:14:50;;;;;;;12.57;7.00;;;17.10;99.90;;;;;;5074453;28;20666;-69
2023/09/18 06:17:17;;;;;;;13.50;7.17;;;17.20;99.90;;;;;;5069137;28;20236;-69
2023/09/18 06:19:43;;;;;;;13.53;6.50;;;17.30;99.90;;;;;;5074576;28;20227;-69
2023/09/18 06:22:09;;;;;;;19.70;8.73;;;17.40;99.90;;;;;;5073133;28;20178;-69
2023/09/18 06:24:35;;;;;;;16.57;8.03;;;17.40;99.90;;;;;;5077769;28;20755;-69
2023/09/18 06:27:00;;;;;;;13.97;7.50;;;17.40;99.90;;;;;;5093495;28;20200;-70
2023/09/18 06:29:26;;;;;;;13.43;7.80;;;17.50;99.90;;;;;;5072532;28;20238;-70
2023/09/18 06:31:51;;;;;;;13.20;6.70;;;17.50;99.90;;;;;;5073182;28;20531;-70
2023/09/18 06:34:17;;;;;;;10.57;6.30;;;17.60;99.90;;;;;;5075027;28;20271;-69
2023/09/18 06:36:43;;;;;;;10.77;5.87;;;17.80;99.90;;;;;;5079650;28;20187;-70
2023/09/18 06:39:08;;;;;;;13.70;6.93;;;17.80;99.90;;;;;;5081421;28;20269;-70
2023/09/18 06:41:34;;;;;;;12.83;6.47;;;17.90;99.90;;;;;;5080407;28;20275;-70
2023/09/18 06:44:03;;;;;;;10.83;5.80;;;17.90;99.90;;;;;;5072893;28;20193;-70
2023/09/18 06:46:29;;;;;;;19.70;9.87;;;18.00;99.90;;;;;;5076576;28;20204;-70
2023/09/18 06:48:56;;;;;;;17.17;6.63;;;18.00;99.90;;;;;;5076895;28;20220;-71
2023/09/18 06:51:22;;;;;;;16.20;8.13;;;18.00;99.90;;;;;;5075196;28;20296;-71
2023/09/18 06:53:48;;;;;;;15.43;6.77;;;18.00;99.90;;;;;;5084639;28;20181;-71
2023/09/18 06:56:13;;;;;;;14.93;7.20;;;17.80;99.90;;;;;;5092826;28;20204;-71
2023/09/18 06:58:39;;;;;;;12.40;6.37;;;17.80;99.90;;;;;;5087203;28;20653;-70
2023/09/18 07:01:09;;;;;;;19.13;6.80;;;17.90;99.90;;;;;;5089256;28;20185;-70
2023/09/18 07:03:36;;;;;;;12.47;6.43;;;17.90;99.90;;;;;;5077182;28;20170;-70
2023/09/18 07:06:02;;;;;;;12.77;6.03;;;17.90;99.90;;;;;;5075951;28;20213;-70
2023/09/18 07:08:27;;;;;;;18.10;6.57;;;18.00;99.90;;;;;;5080170;28;20323;-70
2023/09/18 07:10:53;;;;;;;15.40;6.70;;;18.00;99.90;;;;;;5079634;28;20715;-70
2023/09/18 07:13:19;;;;;;;10.60;5.50;;;18.10;99.90;;;;;;5075709;28;20541;-70
2023/09/18 07:15:44;;;;;;;15.67;8.03;;;18.10;99.90;;;;;;5078256;28;20604;-70
2023/09/18 07:18:14;;;;;;;23.23;9.60;;;18.20;99.90;;;;;;5079997;28;20213;-70
2023/09/18 07:20:40;;;;;;;17.20;7.33;;;18.20;99.90;;;;;;5084390;28;20177;-69
2023/09/18 07:23:05;;;;;;;13.83;6.57;;;18.40;99.90;;;;;;5083495;28;20204;-70
2023/09/18 07:25:31;;;;;;;20.93;6.93;;;18.50;99.90;;;;;;5072117;28;20630;-69
2023/09/18 07:27:57;;;;;;;14.83;6.90;;;18.60;99.90;;;;;;5070095;28;20665;-68
2023/09/18 07:30:26;;;;;;;12.17;6.43;;;18.80;99.90;;;;;;5091387;28;20264;-68
2023/09/18 07:32:58;;;;;;;13.53;6.70;;;18.90;99.90;;;;;;5091142;28;20343;-69
2023/09/18 07:35:25;;;;;;;14.70;6.40;;;19.00;99.90;;;;;;5075188;28;20219;-69
2023/09/18 07:37:50;;;;;;;14.33;6.43;;;19.00;99.90;;;;;;5076484;28;20190;-70
2023/09/18 07:40:16;;;;;;;14.77;5.60;;;19.00;99.90;;;;;;5080264;28;20536;-69
2023/09/18 07:42:43;;;;;;;16.67;5.83;;;19.10;99.90;;;;;;5077374;28;20197;-70
2023/09/18 07:45:09;;;;;;;15.47;6.17;;;19.10;99.90;;;;;;5091055;28;20200;-70
2023/09/18 07:47:35;;;;;;;22.50;5.47;;;19.20;99.90;;;;;;5070255;28;20186;-70
2023/09/18 07:50:01;;;;;;;8.90;4.30;;;19.20;99.90;;;;;;5087807;28;20184;-70
2023/09/18 07:52:27;;;;;;;10.20;4.10;;;19.20;99.90;;;;;;5071628;28;20257;-69
2023/09/18 07:54:52;;;;;;;15.47;4.20;;;19.20;99.90;;;;;;5086763;28;20198;-70
2023/09/18 07:57:19;;;;;;;9.00;3.97;;;19.10;99.90;;;;;;5081105;28;20181;-70
2023/09/18 07:59:46;;;;;;;9.83;4.57;;;19.10;99.90;;;;;;5079804;28;20170;-69
2023/09/18 08:02:11;;;;;;;12.47;4.30;;;19.20;99.90;;;;;;5071164;28;20252;-69
2023/09/18 08:04:37;;;;;;;9.97;4.77;;;19.10;99.90;;;;;;5071313;28;20198;-69
2023/09/18 08:07:05;;;;;;;8.90;3.73;;;19.00;99.90;;;;;;5071359;28;20273;-69
2023/09/18 08:09:31;;;;;;;7.23;3.50;;;19.10;99.90;;;;;;5062933;28;20745;-69
2023/09/18 08:11:57;;;;;;;9.30;4.07;;;19.00;99.90;;;;;;5071151;28;20285;-70
2023/09/18 08:14:22;;;;;;;13.07;3.40;;;19.00;99.90;;;;;;5070915;28;20396;-70
2023/09/18 08:16:48;;;;;;;15.20;3.57;;;19.10;99.90;;;;;;5078048;28;20189;-70
2023/09/18 08:19:17;;;;;;;10.93;3.40;;;19.10;99.90;;;;;;5077990;28;20202;-70
2023/09/18 08:21:42;;;;;;;11.10;3.07;;;19.10;99.90;;;;;;5070440;28;20269;-70
2023/09/18 08:24:08;;;;;;;13.70;3.73;;;19.20;99.90;;;;;;5070813;28;20269;-70
2023/09/18 08:26:34;;;;;;;12.23;2.97;;;19.30;99.90;;;;;;5083562;28;20221;-70
2023/09/18 08:28:59;;;;;;;9.30;2.60;;;19.30;99.90;;;;;;5082138;28;20181;-70
2023/09/18 08:31:27;;;;;;;9.73;2.87;;;19.40;99.90;;;;;;5087853;28;20674;-69
2023/09/18 08:33:56;;;;;;;11.70;2.90;;;19.50;99.90;;;;;;5080204;28;20658;-70
2023/09/18 08:36:22;;;;;;;8.57;2.93;;;19.50;99.90;;;;;;5073510;28;20565;-70
2023/09/18 08:38:51;;;;;;;9.03;2.50;;;19.60;99.90;;;;;;5075696;28;20269;-70
2023/09/18 08:41:19;;;;;;;7.50;2.67;;;19.70;99.90;;;;;;5092378;28;20186;-71
2023/09/18 08:43:47;;;;;;;10.90;2.80;;;19.80;99.90;;;;;;5076623;28;20314;-71
2023/09/18 08:46:13;;;;;;;12.23;2.47;;;19.90;99.90;;;;;;5079650;28;20201;-71
2023/09/18 08:48:39;;;;;;;8.67;2.17;;;19.70;99.90;;;;;;5085189;28;20182;-70
2023/09/18 08:51:06;;;;;;;4.73;2.27;;;19.80;99.90;;;;;;5087244;28;20190;-70
2023/09/18 08:53:34;;;;;;;9.33;2.07;;;19.90;99.90;;;;;;5078753;28;20170;-71
2023/09/18 08:56:03;;;;;;;4.53;2.10;;;20.00;99.90;;;;;;5086596;28;20213;-70
2023/09/18 08:58:35;;;;;;;6.57;2.10;;;20.10;99.90;;;;;;5061425;28;20661;-70
2023/09/18 09:01:03;;;;;;;6.23;2.07;;;20.30;99.90;;;;;;5070615;28;20210;-70
2023/09/18 09:03:30;;;;;;;11.00;2.10;;;20.50;99.90;;;;;;5065430;28;20559;-70
2023/09/18 09:05:56;;;;;;;6.33;1.70;;;20.70;99.90;;;;;;5084731;28;20691;-71
2023/09/18 09:08:22;;;;;;;8.07;2.20;;;20.80;99.90;;;;;;5080089;28;20170;-71
2023/09/18 09:10:48;;;;;;;5.93;1.43;;;20.90;99.90;;;;;;5090348;28;20234;-70
2023/09/18 09:13:14;;;;;;;7.87;1.63;;;21.00;99.90;;;;;;5081218;28;20278;-70
2023/09/18 09:15:47;;;;;;;5.47;1.40;;;21.10;99.90;;;;;;5070113;28;20851;-70
2023/09/18 09:18:16;;;;;;;10.50;1.73;;;21.30;99.90;;;;;;5078904;28;20638;-71
2023/09/18 09:20:59;;;;;;;5.67;1.60;;;21.60;99.90;;;;;;5076604;28;20259;-70
2023/09/18 09:23:29;;;;;;;2.57;1.20;;;21.70;99.90;;;;;;5081049;28;20166;-69
2023/09/18 09:26:16;;;;;;;4.57;1.53;;;21.60;99.90;;;;;;5082086;28;20304;-70
2023/09/18 09:28:44;;;;;;;5.00;1.60;;;21.20;99.90;;;;;;5062756;28;20282;-70
2023/09/18 09:31:10;;;;;;;5.37;1.53;;;21.20;99.90;;;;;;5078746;28;20179;-70
2023/09/18 09:33:40;;;;;;;5.40;1.63;;;21.20;99.90;;;;;;5081589;28;20200;-70
2023/09/18 09:36:07;;;;;;;3.40;1.60;;;21.30;99.90;;;;;;5072092;28;20560;-70
2023/09/18 09:38:34;;;;;;;3.97;1.10;;;21.30;99.90;;;;;;5089387;28;20181;-70
2023/09/18 09:41:01;;;;;;;4.50;1.13;;;21.40;99.90;;;;;;5073909;28;20261;-70
2023/09/18 09:43:27;;;;;;;3.27;1.20;;;21.70;99.90;;;;;;5076617;28;20681;-71
2023/09/18 09:46:02;;;;;;;6.43;1.30;;;21.80;99.90;;;;;;5069720;28;20595;-70
2023/09/18 09:48:32;;;;;;;6.13;1.30;;;22.00;99.90;;;;;;5072558;28;20321;-72
2023/09/18 09:51:00;;;;;;;7.30;1.70;;;22.10;99.90;;;;;;5073689;28;20178;-71
2023/09/18 09:53:47;;;;;;;4.17;1.20;;;22.00;99.90;;;;;;5077802;28;20537;-72
2023/09/18 09:56:13;;;;;;;4.37;1.43;;;22.10;99.90;;;;;;5086480;28;20259;-73
2023/09/18 09:58:41;;;;;;;6.00;1.30;;;22.30;99.90;;;;;;5084433;28;20186;-71
2023/09/18 10:01:10;;;;;;;3.97;1.50;;;22.40;99.90;;;;;;5077672;28;20615;-72
2023/09/18 10:03:38;;;;;;;7.33;1.50;;;22.40;99.90;;;;;;5077868;28;20182;-73
2023/09/18 10:06:05;;;;;;;4.43;1.40;;;22.20;99.90;;;;;;5077920;28;20206;-71
2023/09/18 10:08:32;;;;;;;5.73;1.20;;;22.10;99.90;;;;;;5060615;28;20198;-72
2023/09/18 10:11:10;;;;;;;4.83;1.27;;;22.10;99.90;;;;;;5085253;28;20261;-71
2023/09/18 10:14:00;;;;;;;5.43;1.20;;;21.90;99.90;;;;;;5085326;28;20803;-71
2023/09/18 10:16:29;;;;;;;3.47;1.40;;;22.00;99.90;;;;;;5088804;28;20660;-70
2023/09/18 10:19:28;;;;;;;6.33;1.00;;;21.90;99.90;;;;;;5088853;28;20224;-71
2023/09/18 10:22:23;;;;;;;4.40;1.30;;;21.90;99.90;;;;;;5061769;28;20194;-72
2023/09/18 10:24:54;;;;;;;3.87;0.83;;;21.90;99.90;;;;;;5089512;28;20194;-72
2023/09/18 10:27:22;;;;;;;6.27;1.53;;;21.80;99.90;;;;;;5081103;28;20218;-72
2023/09/18 10:29:51;;;;;;;37.53;13.53;;;21.80;99.90;;;;;;5082728;28;20660;-72
2023/09/18 10:32:20;;;;;;;4.23;1.87;;;21.90;99.90;;;;;;5077425;28;20199;-72
2023/09/18 10:34:47;;;;;;;4.73;1.37;;;21.90;99.90;;;;;;5068587;28;20209;-72
2023/09/18 10:37:14;;;;;;;4.10;1.10;;;21.90;99.90;;;;;;5085676;28;20435;-73
2023/09/18 10:39:43;;;;;;;3.27;1.10;;;21.90;99.90;;;;;;5076957;28;20184;-73
2023/09/18 10:42:09;;;;;;;2.87;1.30;;;22.00;99.90;;;;;;5067653;28;20575;-73
2023/09/18 10:44:36;;;;;;;4.33;1.37;;;22.00;99.90;;;;;;5081547;28;20323;-73
2023/09/18 10:47:05;;;;;;;4.47;1.23;;;21.90;99.90;;;;;;5089438;28;20262;-72
2023/09/18 10:49:31;;;;;;;5.83;1.70;;;21.70;99.90;;;;;;5076741;28;20547;-74
2023/09/18 10:51:58;;;;;;;6.30;1.47;;;21.60;99.90;;;;;;5068967;28;20237;-72
2023/09/18 10:54:27;;;;;;;3.50;1.23;;;21.60;99.90;;;;;;5071590;28;20206;-72
2023/09/18 10:56:52;;;;;;;8.00;1.33;;;21.70;99.90;;;;;;5082760;28;20190;-73
2023/09/18 10:59:20;;;;;;;4.17;1.40;;;21.80;99.90;;;;;;5068750;28;20262;-74
2023/09/18 11:01:48;;;;;;;2.77;1.00;;;21.90;99.90;;;;;;5082700;28;20189;-71
2023/09/18 11:04:17;;;;;;;5.17;1.07;;;21.80;99.90;;;;;;5088834;28;20392;-71
2023/09/18 11:06:55;;;;;;;4.83;1.30;;;21.80;99.90;;;;;;5083780;28;20182;-69
2023/09/18 11:09:24;;;;;;;6.97;1.40;;;21.90;99.90;;;;;;5081675;28;20177;-71
2023/09/18 11:11:57;;;;;;;4.20;1.10;;;22.00;99.90;;;;;;5092374;28;20197;-70
2023/09/18 11:14:45;;;;;;;4.77;1.30;;;22.20;99.90;;;;;;5089891;28;20661;-70
2023/09/18 11:17:39;;;;;;;5.20;1.10;;;22.30;99.90;;;;;;5079111;28;20182;-70
2023/09/18 11:20:09;;;;;;;3.93;1.27;;;22.60;99.90;;;;;;5088912;28;20660;-71
2023/09/18 11:22:48;;;;;;;4.63;0.90;;;22.70;99.90;;;;;;5084034;28;20183;-70
2023/09/18 11:25:51;;;;;;;3.47;1.03;;;22.60;99.90;;;;;;5092593;28;20194;-70
2023/09/18 11:28:23;;;;;;;6.57;1.13;;;22.60;99.90;;;;;;5068867;28;20174;-71
2023/09/18 11:30:50;;;;;;;4.27;1.10;;;22.50;99.90;;;;;;5074686;28;20272;-70
2023/09/18 11:33:37;;;;;;;8.87;1.20;;;22.70;99.90;;;;;;5081713;28;20211;-70
2023/09/18 11:36:06;;;;;;;1.40;0.90;;;22.80;99.90;;;;;;5084319;28;20190;-70
2023/09/18 11:38:33;;;;;;;2.53;0.97;;;22.50;99.90;;;;;;5083241;28;20174;-70
2023/09/18 11:41:01;;;;;;;2.53;1.00;;;22.40;99.90;;;;;;5083666;28;20249;-70
2023/09/18 11:43:31;;;;;;;2.63;0.90;;;22.60;99.90;;;;;;5083715;28;20316;-70
2023/09/18 11:46:01;;;;;;;2.23;0.83;;;22.60;99.90;;;;;;5085162;28;20193;-69
2023/09/18 11:48:29;;;;;;;3.57;1.20;;;22.40;99.90;;;;;;5090831;28;20177;-70
2023/09/18 11:50:59;;;;;;;1.40;0.80;;;22.40;99.90;;;;;;5091884;28;20180;-70
2023/09/18 11:53:27;;;;;;;1.33;0.73;;;22.40;99.90;;;;;;5089008;28;20209;-70
2023/09/18 11:55:53;;;;;;;3.43;1.10;;;22.40;99.90;;;;;;5086540;28;20222;-71
2023/09/18 11:58:23;;;;;;;2.10;1.00;;;22.50;99.90;;;;;;5072676;28;20275;-71
2023/09/18 12:00:49;;;;;;;5.17;0.83;;;22.70;99.90;;;;;;5077395;28;20192;-70
2023/09/18 12:03:25;;;;;;;2.33;0.70;;;22.90;99.90;;;;;;5090328;28;20190;-71
2023/09/18 12:06:00;;;;;;;2.27;1.20;;;22.90;99.90;;;;;;5079445;28;20191;-70
2023/09/18 12:08:29;;;;;;;4.00;1.10;;;22.90;99.90;;;;;;5070454;28;20198;-72
2023/09/18 12:10:55;;;;;;;4.23;1.13;;;22.90;99.90;;;;;;5071242;28;20224;-68
2023/09/18 12:13:21;;;;;;;4.47;1.10;;;22.90;99.90;;;;;;5070837;28;20210;-71
2023/09/18 12:15:48;;;;;;;4.47;0.97;;;23.10;99.90;;;;;;5079226;28;20252;-71
2023/09/18 12:18:15;;;;;;;1.90;0.80;;;23.20;99.90;;;;;;5070466;28;20259;-70
2023/09/18 12:20:50;;;;;;;5.77;1.27;;;23.40;99.90;;;;;;5077327;28;20178;-70
2023/09/18 12:23:19;;;;;;;3.70;1.10;;;23.80;99.90;;;;;;5078128;28;20175;-70
2023/09/18 12:25:49;;;;;;;3.67;1.00;;;24.00;99.90;;;;;;5079280;28;20620;-71
2023/09/18 12:28:16;;;;;;;3.03;1.20;;;24.10;99.90;;;;;;5071549;28;20275;-70
2023/09/18 12:30:43;;;;;;;2.77;1.00;;;24.20;99.90;;;;;;5077847;28;20189;-70
2023/09/18 12:33:10;;;;;;;4.63;1.03;;;24.00;99.90;;;;;;5087834;28;21194;-70
2023/09/18 12:35:37;;;;;;;2.13;1.00;;;24.10;99.90;;;;;;5091192;28;20213;-70
2023/09/18 12:38:15;;;;;;;4.57;1.17;;;24.10;99.90;;;;;;5082452;28;20172;-71
2023/09/18 12:40:40;;;;;;;5.87;0.90;;;24.00;99.90;;;;;;5063817;28;20666;-72
2023/09/18 12:43:07;;;;;;;4.10;1.10;;;24.00;99.90;;;;;;5070813;28;20184;-71